Providence Village's Hourly Summary for Thursday, July 5, 2018
Hour Temp
(f)
RH
(%)
Solar Rad.
(MJ/m2)
Rainfall
(in)
Wind
(mph)
7/5/2018 12:00 AM 82 62 0 0 7.89
7/5/2018 1:00 AM 81 67 0 0 4.88
7/5/2018 2:00 AM 79 71 0 0 3.32
7/5/2018 3:00 AM 77 74 0 0 2.15
7/5/2018 4:00 AM 76 78 0 0 1.96
7/5/2018 5:00 AM 74 82 0 0 0.81
7/5/2018 6:00 AM 73 88 0 0 0.07
7/5/2018 7:00 AM 72 88 0.02 0 0.5
7/5/2018 8:00 AM 74 78 0.32 0 0.38
7/5/2018 9:00 AM 79 72 0.95 0 2.43
7/5/2018 10:00 AM 81 67 0.74 0 2.23
7/5/2018 11:00 AM 84 59 2.25 0 2.78
7/5/2018 12:00 PM 87 53 2.62 0 3.26
7/5/2018 1:00 PM 89 46 2.77 0 3.71
7/5/2018 2:00 PM 91 45 2.12 0 5.7
7/5/2018 3:00 PM 93 40 2.55 0 4.46
7/5/2018 4:00 PM 95 35 2.17 0 3.63
7/5/2018 5:00 PM 92 38 1.27 0 3.48
7/5/2018 6:00 PM 92 41 1.4 0 5.48
7/5/2018 7:00 PM 89 50 0.7 0 4.36
7/5/2018 8:00 PM 89 50 0.31 0 3.84
7/5/2018 9:00 PM 88 51 0.08 0 5.69
7/5/2018 10:00 PM 86 59 0 0 5.19
7/5/2018 11:00 PM 84 62 0 0 5.98
Data Summary 83 60 20.27 0.00 3.51